sensor_id;sensor_type;location;lat;lon;timestamp;temperature;humidity
14471;DHT22;7321;50.802;4.336;2023-11-19T00:01:23;14.40;99.90
14471;DHT22;7321;50.802;4.336;2023-11-19T00:03:49;14.50;99.90
14471;DHT22;7321;50.802;4.336;2023-11-19T00:06:15;14.60;99.90
14471;DHT22;7321;50.802;4.336;2023-11-19T00:08:42;14.70;99.90
14471;DHT22;7321;50.802;4.336;2023-11-19T00:11:09;14.60;99.90
14471;DHT22;7321;50.802;4.336;2023-11-19T00:13:35;14.50;99.90
14471;DHT22;7321;50.802;4.336;2023-11-19T00:16:01;14.50;99.90
14471;DHT22;7321;50.802;4.336;2023-11-19T00:18:26;14.50;99.90
14471;DHT22;7321;50.802;4.336;2023-11-19T00:20:52;14.40;99.90
14471;DHT22;7321;50.802;4.336;2023-11-19T00:23:18;14.40;99.90
14471;DHT22;7321;50.802;4.336;2023-11-19T00:25:44;14.40;99.90
14471;DHT22;7321;50.802;4.336;2023-11-19T00:28:13;14.50;99.90
14471;DHT22;7321;50.802;4.336;2023-11-19T00:30:38;14.60;99.90
14471;DHT22;7321;50.802;4.336;2023-11-19T00:33:06;14.60;99.90
14471;DHT22;7321;50.802;4.336;2023-11-19T00:35:32;14.60;99.90
14471;DHT22;7321;50.802;4.336;2023-11-19T00:37:58;14.60;99.90
14471;DHT22;7321;50.802;4.336;2023-11-19T00:40:24;14.70;99.90
14471;DHT22;7321;50.802;4.336;2023-11-19T00:42:50;14.50;99.90
14471;DHT22;7321;50.802;4.336;2023-11-19T00:45:16;14.40;99.90
14471;DHT22;7321;50.802;4.336;2023-11-19T00:47:42;14.40;99.90
14471;DHT22;7321;50.802;4.336;2023-11-19T00:50:16;14.50;99.90
14471;DHT22;7321;50.802;4.336;2023-11-19T00:52:44;14.40;99.90
14471;DHT22;7321;50.802;4.336;2023-11-19T00:55:10;14.40;99.90
14471;DHT22;7321;50.802;4.336;2023-11-19T00:57:37;14.40;99.90
14471;DHT22;7321;50.802;4.336;2023-11-19T01:00:04;14.40;99.90
14471;DHT22;7321;50.802;4.336;2023-11-19T01:02:46;14.40;99.90
14471;DHT22;7321;50.802;4.336;2023-11-19T01:05:13;14.50;99.90
14471;DHT22;7321;50.802;4.336;2023-11-19T01:07:41;14.50;99.90
14471;DHT22;7321;50.802;4.336;2023-11-19T01:10:08;14.60;99.90
14471;DHT22;7321;50.802;4.336;2023-11-19T01:12:34;14.70;99.90
14471;DHT22;7321;50.802;4.336;2023-11-19T01:15:00;14.70;99.90
14471;DHT22;7321;50.802;4.336;2023-11-19T01:17:26;14.70;99.90
14471;DHT22;7321;50.802;4.336;2023-11-19T01:19:52;14.60;99.90
14471;DHT22;7321;50.802;4.336;2023-11-19T01:22:18;14.60;99.90
14471;DHT22;7321;50.802;4.336;2023-11-19T01:24:44;14.40;99.90
14471;DHT22;7321;50.802;4.336;2023-11-19T01:27:10;14.50;99.90
14471;DHT22;7321;50.802;4.336;2023-11-19T01:29:36;14.40;99.90
14471;DHT22;7321;50.802;4.336;2023-11-19T01:32:03;14.50;99.90
14471;DHT22;7321;50.802;4.336;2023-11-19T01:34:29;14.60;99.90
14471;DHT22;7321;50.802;4.336;2023-11-19T01:36:55;14.50;99.90
14471;DHT22;7321;50.802;4.336;2023-11-19T01:39:21;14.40;99.90
14471;DHT22;7321;50.802;4.336;2023-11-19T01:41:48;14.40;99.90
14471;DHT22;7321;50.802;4.336;2023-11-19T01:44:13;14.30;99.90
14471;DHT22;7321;50.802;4.336;2023-11-19T01:46:44;14.30;99.90
14471;DHT22;7321;50.802;4.336;2023-11-19T01:49:14;14.30;99.90
14471;DHT22;7321;50.802;4.336;2023-11-19T01:51:40;14.30;99.90
14471;DHT22;7321;50.802;4.336;2023-11-19T01:54:07;14.30;99.90
14471;DHT22;7321;50.802;4.336;2023-11-19T01:56:34;14.20;99.90
14471;DHT22;7321;50.802;4.336;2023-11-19T01:59:00;14.00;99.90
14471;DHT22;7321;50.802;4.336;2023-11-19T02:01:27;13.90;99.90
14471;DHT22;7321;50.802;4.336;2023-11-19T02:03:55;14.10;99.90
14471;DHT22;7321;50.802;4.336;2023-11-19T02:06:21;14.10;99.90
14471;DHT22;7321;50.802;4.336;2023-11-19T02:08:49;14.00;99.90
14471;DHT22;7321;50.802;4.336;2023-11-19T02:11:15;13.90;99.90
14471;DHT22;7321;50.802;4.336;2023-11-19T02:13:41;13.90;99.90
14471;DHT22;7321;50.802;4.336;2023-11-19T02:16:09;13.90;99.90
14471;DHT22;7321;50.802;4.336;2023-11-19T02:18:37;13.80;99.90
14471;DHT22;7321;50.802;4.336;2023-11-19T02:21:03;13.90;99.90
14471;DHT22;7321;50.802;4.336;2023-11-19T02:23:30;14.10;99.90
14471;DHT22;7321;50.802;4.336;2023-11-19T02:26:24;14.10;99.90
14471;DHT22;7321;50.802;4.336;2023-11-19T02:28:55;14.10;99.90
14471;DHT22;7321;50.802;4.336;2023-11-19T02:31:21;14.20;99.90
14471;DHT22;7321;50.802;4.336;2023-11-19T02:33:48;14.10;99.90
14471;DHT22;7321;50.802;4.336;2023-11-19T02:36:15;14.00;99.90
14471;DHT22;7321;50.802;4.336;2023-11-19T02:38:42;13.90;99.90
14471;DHT22;7321;50.802;4.336;2023-11-19T02:41:09;13.80;99.90
14471;DHT22;7321;50.802;4.336;2023-11-19T02:43:36;13.60;99.90
14471;DHT22;7321;50.802;4.336;2023-11-19T02:46:03;13.70;99.90
14471;DHT22;7321;50.802;4.336;2023-11-19T02:48:36;13.80;99.90
14471;DHT22;7321;50.802;4.336;2023-11-19T02:51:02;13.80;99.90
14471;DHT22;7321;50.802;4.336;2023-11-19T02:53:35;13.70;99.90
14471;DHT22;7321;50.802;4.336;2023-11-19T02:56:03;13.70;99.90
14471;DHT22;7321;50.802;4.336;2023-11-19T02:58:43;13.80;99.90
14471;DHT22;7321;50.802;4.336;2023-11-19T03:01:10;13.70;99.90
14471;DHT22;7321;50.802;4.336;2023-11-19T03:03:44;13.60;99.90
14471;DHT22;7321;50.802;4.336;2023-11-19T03:06:14;13.60;99.90
14471;DHT22;7321;50.802;4.336;2023-11-19T03:08:41;13.70;99.90
14471;DHT22;7321;50.802;4.336;2023-11-19T03:11:08;13.80;99.90
14471;DHT22;7321;50.802;4.336;2023-11-19T03:13:34;13.70;99.90
14471;DHT22;7321;50.802;4.336;2023-11-19T03:16:00;13.70;99.90
14471;DHT22;7321;50.802;4.336;2023-11-19T03:18:25;13.60;99.90
14471;DHT22;7321;50.802;4.336;2023-11-19T03:20:52;13.60;99.90
14471;DHT22;7321;50.802;4.336;2023-11-19T03:23:18;13.70;99.90
14471;DHT22;7321;50.802;4.336;2023-11-19T03:25:44;13.60;99.90
14471;DHT22;7321;50.802;4.336;2023-11-19T03:28:10;13.60;99.90
14471;DHT22;7321;50.802;4.336;2023-11-19T03:30:36;13.60;99.90
14471;DHT22;7321;50.802;4.336;2023-11-19T03:33:03;13.50;99.90
14471;DHT22;7321;50.802;4.336;2023-11-19T03:35:29;13.50;99.90
14471;DHT22;7321;50.802;4.336;2023-11-19T03:37:55;13.50;99.90
14471;DHT22;7321;50.802;4.336;2023-11-19T03:40:21;13.60;99.90
14471;DHT22;7321;50.802;4.336;2023-11-19T03:42:48;13.50;99.90
14471;DHT22;7321;50.802;4.336;2023-11-19T03:45:14;13.50;99.90
14471;DHT22;7321;50.802;4.336;2023-11-19T03:47:41;13.30;99.90
14471;DHT22;7321;50.802;4.336;2023-11-19T03:50:07;13.30;99.90
14471;DHT22;7321;50.802;4.336;2023-11-19T03:52:36;13.20;99.90
14471;DHT22;7321;50.802;4.336;2023-11-19T03:55:02;13.30;99.90
14471;DHT22;7321;50.802;4.336;2023-11-19T03:57:31;13.40;99.90
14471;DHT22;7321;50.802;4.336;2023-11-19T03:59:57;13.40;99.90
14471;DHT22;7321;50.802;4.336;2023-11-19T04:02:24;13.30;99.90
14471;DHT22;7321;50.802;4.336;2023-11-19T04:04:54;13.30;99.90
14471;DHT22;7321;50.802;4.336;2023-11-19T04:07:20;13.20;99.90
14471;DHT22;7321;50.802;4.336;2023-11-19T04:09:46;13.30;99.90
14471;DHT22;7321;50.802;4.336;2023-11-19T04:12:12;13.30;99.90
14471;DHT22;7321;50.802;4.336;2023-11-19T04:14:38;13.10;99.90
14471;DHT22;7321;50.802;4.336;2023-11-19T04:17:04;13.20;99.90
14471;DHT22;7321;50.802;4.336;2023-11-19T04:19:30;13.20;99.90
14471;DHT22;7321;50.802;4.336;2023-11-19T04:21:58;13.40;99.90
14471;DHT22;7321;50.802;4.336;2023-11-19T04:24:24;13.30;99.90
14471;DHT22;7321;50.802;4.336;2023-11-19T04:26:50;13.20;99.90
14471;DHT22;7321;50.802;4.336;2023-11-19T04:29:16;13.20;99.90
14471;DHT22;7321;50.802;4.336;2023-11-19T04:31:43;13.10;99.90
14471;DHT22;7321;50.802;4.336;2023-11-19T04:34:12;13.10;99.90
14471;DHT22;7321;50.802;4.336;2023-11-19T04:36:38;13.20;99.90
14471;DHT22;7321;50.802;4.336;2023-11-19T04:39:04;13.10;99.90
14471;DHT22;7321;50.802;4.336;2023-11-19T04:41:49;13.00;99.90
14471;DHT22;7321;50.802;4.336;2023-11-19T04:44:18;12.90;99.90
14471;DHT22;7321;50.802;4.336;2023-11-19T04:46:44;12.80;99.90
14471;DHT22;7321;50.802;4.336;2023-11-19T04:49:10;12.90;99.90
14471;DHT22;7321;50.802;4.336;2023-11-19T04:51:45;12.90;99.90
14471;DHT22;7321;50.802;4.336;2023-11-19T04:54:13;13.00;99.90
14471;DHT22;7321;50.802;4.336;2023-11-19T04:56:39;12.90;99.90
14471;DHT22;7321;50.802;4.336;2023-11-19T04:59:06;13.00;99.90
14471;DHT22;7321;50.802;4.336;2023-11-19T05:01:33;13.10;99.90
14471;DHT22;7321;50.802;4.336;2023-11-19T05:03:59;13.20;99.90
14471;DHT22;7321;50.802;4.336;2023-11-19T05:06:29;13.10;99.90
14471;DHT22;7321;50.802;4.336;2023-11-19T05:08:56;13.20;99.90
14471;DHT22;7321;50.802;4.336;2023-11-19T05:11:22;13.10;99.90
14471;DHT22;7321;50.802;4.336;2023-11-19T05:13:48;13.10;99.90
14471;DHT22;7321;50.802;4.336;2023-11-19T05:16:14;13.10;99.90
14471;DHT22;7321;50.802;4.336;2023-11-19T05:18:41;13.10;99.90
14471;DHT22;7321;50.802;4.336;2023-11-19T05:21:07;13.00;99.90
14471;DHT22;7321;50.802;4.336;2023-11-19T05:23:33;13.10;99.90
14471;DHT22;7321;50.802;4.336;2023-11-19T05:26:01;13.10;99.90
14471;DHT22;7321;50.802;4.336;2023-11-19T05:28:27;13.00;99.90
14471;DHT22;7321;50.802;4.336;2023-11-19T05:30:52;13.00;99.90
14471;DHT22;7321;50.802;4.336;2023-11-19T05:33:18;13.00;99.90
14471;DHT22;7321;50.802;4.336;2023-11-19T05:35:44;12.90;99.90
14471;DHT22;7321;50.802;4.336;2023-11-19T05:38:10;13.10;99.90
14471;DHT22;7321;50.802;4.336;2023-11-19T05:40:36;13.10;99.90
14471;DHT22;7321;50.802;4.336;2023-11-19T05:43:04;13.00;99.90
14471;DHT22;7321;50.802;4.336;2023-11-19T05:45:31;13.00;99.90
14471;DHT22;7321;50.802;4.336;2023-11-19T05:47:57;13.00;99.90
14471;DHT22;7321;50.802;4.336;2023-11-19T05:50:23;13.10;99.90
14471;DHT22;7321;50.802;4.336;2023-11-19T05:52:50;13.10;99.90
14471;DHT22;7321;50.802;4.336;2023-11-19T05:55:16;13.10;99.90
14471;DHT22;7321;50.802;4.336;2023-11-19T05:57:42;13.00;99.90
14471;DHT22;7321;50.802;4.336;2023-11-19T06:00:09;13.10;99.90
14471;DHT22;7321;50.802;4.336;2023-11-19T06:02:39;13.00;99.90
14471;DHT22;7321;50.802;4.336;2023-11-19T06:05:05;13.10;99.90
14471;DHT22;7321;50.802;4.336;2023-11-19T06:07:32;13.00;99.90
14471;DHT22;7321;50.802;4.336;2023-11-19T06:09:58;12.80;99.90
14471;DHT22;7321;50.802;4.336;2023-11-19T06:12:24;12.80;99.90
14471;DHT22;7321;50.802;4.336;2023-11-19T06:14:50;12.90;99.90
14471;DHT22;7321;50.802;4.336;2023-11-19T06:17:16;13.00;99.90
14471;DHT22;7321;50.802;4.336;2023-11-19T06:19:42;13.10;99.90
14471;DHT22;7321;50.802;4.336;2023-11-19T06:22:08;13.00;99.90
14471;DHT22;7321;50.802;4.336;2023-11-19T06:24:34;12.90;99.90
14471;DHT22;7321;50.802;4.336;2023-11-19T06:27:00;12.90;99.90
14471;DHT22;7321;50.802;4.336;2023-11-19T06:29:26;12.90;99.90
14471;DHT22;7321;50.802;4.336;2023-11-19T06:31:52;12.90;99.90
14471;DHT22;7321;50.802;4.336;2023-11-19T06:34:18;12.80;99.90
14471;DHT22;7321;50.802;4.336;2023-11-19T06:36:44;12.70;99.90
14471;DHT22;7321;50.802;4.336;2023-11-19T06:39:10;12.60;99.90
14471;DHT22;7321;50.802;4.336;2023-11-19T06:41:38;12.70;99.90
14471;DHT22;7321;50.802;4.336;2023-11-19T06:44:04;12.70;99.90
14471;DHT22;7321;50.802;4.336;2023-11-19T06:46:31;12.70;99.90
14471;DHT22;7321;50.802;4.336;2023-11-19T06:48:57;12.70;99.90
14471;DHT22;7321;50.802;4.336;2023-11-19T06:51:23;12.70;99.90
14471;DHT22;7321;50.802;4.336;2023-11-19T06:53:53;12.50;99.90
14471;DHT22;7321;50.802;4.336;2023-11-19T06:56:31;12.60;99.90
14471;DHT22;7321;50.802;4.336;2023-11-19T06:58:57;12.50;99.90
14471;DHT22;7321;50.802;4.336;2023-11-19T07:01:26;12.40;99.90
14471;DHT22;7321;50.802;4.336;2023-11-19T07:03:56;12.50;99.90
14471;DHT22;7321;50.802;4.336;2023-11-19T07:06:23;12.50;99.90
14471;DHT22;7321;50.802;4.336;2023-11-19T07:08:49;12.40;99.90
14471;DHT22;7321;50.802;4.336;2023-11-19T07:11:15;12.40;99.90
14471;DHT22;7321;50.802;4.336;2023-11-19T07:13:42;12.30;99.90
14471;DHT22;7321;50.802;4.336;2023-11-19T07:16:08;12.40;99.90
14471;DHT22;7321;50.802;4.336;2023-11-19T07:18:37;12.50;99.90
14471;DHT22;7321;50.802;4.336;2023-11-19T07:21:06;12.50;99.90
14471;DHT22;7321;50.802;4.336;2023-11-19T07:23:33;12.50;99.90
14471;DHT22;7321;50.802;4.336;2023-11-19T07:25:59;12.50;99.90
14471;DHT22;7321;50.802;4.336;2023-11-19T07:28:25;12.50;99.90
14471;DHT22;7321;50.802;4.336;2023-11-19T07:30:54;12.60;99.90
14471;DHT22;7321;50.802;4.336;2023-11-19T07:33:37;12.60;99.90
14471;DHT22;7321;50.802;4.336;2023-11-19T07:36:03;12.70;99.90
14471;DHT22;7321;50.802;4.336;2023-11-19T07:38:29;12.60;99.90
14471;DHT22;7321;50.802;4.336;2023-11-19T07:40:58;12.60;99.90
14471;DHT22;7321;50.802;4.336;2023-11-19T07:43:26;12.60;99.90
14471;DHT22;7321;50.802;4.336;2023-11-19T07:45:53;12.60;99.90
14471;DHT22;7321;50.802;4.336;2023-11-19T07:48:19;12.60;99.90
14471;DHT22;7321;50.802;4.336;2023-11-19T07:50:58;12.70;99.90
14471;DHT22;7321;50.802;4.336;2023-11-19T07:53:26;12.70;99.90
14471;DHT22;7321;50.802;4.336;2023-11-19T07:55:58;12.70;99.90
14471;DHT22;7321;50.802;4.336;2023-11-19T07:58:28;12.90;99.90
14471;DHT22;7321;50.802;4.336;2023-11-19T08:00:57;12.90;99.90
14471;DHT22;7321;50.802;4.336;2023-11-19T08:03:23;12.90;99.90
14471;DHT22;7321;50.802;4.336;2023-11-19T08:05:52;13.00;99.90
14471;DHT22;7321;50.802;4.336;2023-11-19T08:08:23;13.10;99.90
14471;DHT22;7321;50.802;4.336;2023-11-19T08:10:58;13.10;99.90
14471;DHT22;7321;50.802;4.336;2023-11-19T08:13:24;13.10;99.90
14471;DHT22;7321;50.802;4.336;2023-11-19T08:15:51;13.00;99.90
14471;DHT22;7321;50.802;4.336;2023-11-19T08:18:17;13.00;99.90
14471;DHT22;7321;50.802;4.336;2023-11-19T08:20:44;13.00;99.90
14471;DHT22;7321;50.802;4.336;2023-11-19T08:23:10;12.90;99.90
14471;DHT22;7321;50.802;4.336;2023-11-19T08:25:36;13.00;99.90
14471;DHT22;7321;50.802;4.336;2023-11-19T08:28:02;13.10;99.90
14471;DHT22;7321;50.802;4.336;2023-11-19T08:30:29;13.10;99.90
14471;DHT22;7321;50.802;4.336;2023-11-19T08:32:55;13.10;99.90
14471;DHT22;7321;50.802;4.336;2023-11-19T08:35:22;13.30;99.90
14471;DHT22;7321;50.802;4.336;2023-11-19T08:37:49;13.40;99.90
14471;DHT22;7321;50.802;4.336;2023-11-19T08:40:15;13.30;99.90
14471;DHT22;7321;50.802;4.336;2023-11-19T08:42:41;13.30;99.90
14471;DHT22;7321;50.802;4.336;2023-11-19T08:45:08;13.30;99.90
14471;DHT22;7321;50.802;4.336;2023-11-19T08:47:37;13.30;99.90
14471;DHT22;7321;50.802;4.336;2023-11-19T08:50:03;13.30;99.90
14471;DHT22;7321;50.802;4.336;2023-11-19T08:52:30;13.40;99.90
14471;DHT22;7321;50.802;4.336;2023-11-19T08:54:56;13.30;99.90
14471;DHT22;7321;50.802;4.336;2023-11-19T08:57:25;13.30;99.90
14471;DHT22;7321;50.802;4.336;2023-11-19T08:59:54;13.30;99.90
14471;DHT22;7321;50.802;4.336;2023-11-19T09:05:27;13.40;99.90
14471;DHT22;7321;50.802;4.336;2023-11-19T09:11:10;13.40;99.90
14471;DHT22;7321;50.802;4.336;2023-11-19T09:13:43;13.20;99.90
14471;DHT22;7321;50.802;4.336;2023-11-19T09:16:28;13.20;99.90
14471;DHT22;7321;50.802;4.336;2023-11-19T09:19:02;13.20;99.90
14471;DHT22;7321;50.802;4.336;2023-11-19T09:21:30;13.30;99.90
14471;DHT22;7321;50.802;4.336;2023-11-19T09:23:56;13.30;99.90
14471;DHT22;7321;50.802;4.336;2023-11-19T09:26:25;13.30;99.90
14471;DHT22;7321;50.802;4.336;2023-11-19T09:28:51;13.30;99.90
14471;DHT22;7321;50.802;4.336;2023-11-19T09:31:32;13.50;99.90
14471;DHT22;7321;50.802;4.336;2023-11-19T09:34:02;13.60;99.90
14471;DHT22;7321;50.802;4.336;2023-11-19T09:36:28;13.70;99.90
14471;DHT22;7321;50.802;4.336;2023-11-19T09:38:57;13.70;99.90
14471;DHT22;7321;50.802;4.336;2023-11-19T09:41:35;13.60;99.90
14471;DHT22;7321;50.802;4.336;2023-11-19T09:44:04;13.50;99.90
14471;DHT22;7321;50.802;4.336;2023-11-19T09:46:30;13.60;99.90
14471;DHT22;7321;50.802;4.336;2023-11-19T09:49:01;13.60;99.90
14471;DHT22;7321;50.802;4.336;2023-11-19T09:51:32;13.60;99.90
14471;DHT22;7321;50.802;4.336;2023-11-19T09:53:58;13.50;99.90
14471;DHT22;7321;50.802;4.336;2023-11-19T09:56:33;13.40;99.90
14471;DHT22;7321;50.802;4.336;2023-11-19T09:59:05;13.50;99.90
14471;DHT22;7321;50.802;4.336;2023-11-19T10:01:31;13.50;99.90
14471;DHT22;7321;50.802;4.336;2023-11-19T10:03:58;13.60;99.90
14471;DHT22;7321;50.802;4.336;2023-11-19T10:06:30;13.50;99.90
14471;DHT22;7321;50.802;4.336;2023-11-19T10:08:59;13.60;99.90
14471;DHT22;7321;50.802;4.336;2023-11-19T10:11:25;13.60;99.90
14471;DHT22;7321;50.802;4.336;2023-11-19T10:13:53;13.80;99.90
14471;DHT22;7321;50.802;4.336;2023-11-19T10:16:19;13.90;99.90
14471;DHT22;7321;50.802;4.336;2023-11-19T10:18:55;14.00;99.90
14471;DHT22;7321;50.802;4.336;2023-11-19T10:21:24;14.00;99.90
14471;DHT22;7321;50.802;4.336;2023-11-19T10:23:55;14.00;99.90
14471;DHT22;7321;50.802;4.336;2023-11-19T10:26:26;14.20;99.90
14471;DHT22;7321;50.802;4.336;2023-11-19T10:28:56;14.30;99.90
14471;DHT22;7321;50.802;4.336;2023-11-19T10:31:31;14.40;99.90
14471;DHT22;7321;50.802;4.336;2023-11-19T10:34:04;14.40;99.90
14471;DHT22;7321;50.802;4.336;2023-11-19T10:36:42;14.40;99.90
14471;DHT22;7321;50.802;4.336;2023-11-19T10:39:09;14.50;99.90
14471;DHT22;7321;50.802;4.336;2023-11-19T10:41:35;14.30;99.90
14471;DHT22;7321;50.802;4.336;2023-11-19T10:44:01;14.20;99.90
14471;DHT22;7321;50.802;4.336;2023-11-19T10:49:06;14.10;99.90
14471;DHT22;7321;50.802;4.336;2023-11-19T10:51:52;14.10;99.90
14471;DHT22;7321;50.802;4.336;2023-11-19T10:54:19;13.90;99.90
14471;DHT22;7321;50.802;4.336;2023-11-19T10:56:49;14.00;99.90
14471;DHT22;7321;50.802;4.336;2023-11-19T10:59:28;14.00;99.90
14471;DHT22;7321;50.802;4.336;2023-11-19T11:01:56;14.10;99.90
14471;DHT22;7321;50.802;4.336;2023-11-19T11:07:21;14.10;99.90
14471;DHT22;7321;50.802;4.336;2023-11-19T11:09:51;14.10;99.90
14471;DHT22;7321;50.802;4.336;2023-11-19T11:12:25;14.20;99.90
14471;DHT22;7321;50.802;4.336;2023-11-19T11:14:52;14.20;99.90
14471;DHT22;7321;50.802;4.336;2023-11-19T11:17:20;14.20;99.90
14471;DHT22;7321;50.802;4.336;2023-11-19T11:19:50;14.20;99.90
14471;DHT22;7321;50.802;4.336;2023-11-19T11:22:20;14.00;99.90
14471;DHT22;7321;50.802;4.336;2023-11-19T11:25:33;13.80;99.90
14471;DHT22;7321;50.802;4.336;2023-11-19T11:28:15;13.80;99.90
14471;DHT22;7321;50.802;4.336;2023-11-19T11:37:17;14.20;99.90
14471;DHT22;7321;50.802;4.336;2023-11-19T11:39:46;14.20;99.90
14471;DHT22;7321;50.802;4.336;2023-11-19T11:50:23;14.30;99.90
14471;DHT22;7321;50.802;4.336;2023-11-19T11:55:28;14.30;99.90
14471;DHT22;7321;50.802;4.336;2023-11-19T11:57:55;14.50;99.90
14471;DHT22;7321;50.802;4.336;2023-11-19T12:00:30;14.50;99.90
14471;DHT22;7321;50.802;4.336;2023-11-19T12:02:57;14.50;99.90
14471;DHT22;7321;50.802;4.336;2023-11-19T12:05:26;14.60;99.90
14471;DHT22;7321;50.802;4.336;2023-11-19T12:08:04;14.60;99.90
14471;DHT22;7321;50.802;4.336;2023-11-19T12:10:34;14.50;99.90
14471;DHT22;7321;50.802;4.336;2023-11-19T12:13:07;14.60;99.90
14471;DHT22;7321;50.802;4.336;2023-11-19T12:15:33;14.40;99.90
14471;DHT22;7321;50.802;4.336;2023-11-19T12:18:19;14.20;99.90
14471;DHT22;7321;50.802;4.336;2023-11-19T12:20:45;14.00;99.90
14471;DHT22;7321;50.802;4.336;2023-11-19T12:23:12;14.00;99.90
14471;DHT22;7321;50.802;4.336;2023-11-19T12:25:40;13.90;99.90
14471;DHT22;7321;50.802;4.336;2023-11-19T12:28:16;13.70;99.90
14471;DHT22;7321;50.802;4.336;2023-11-19T12:30:46;13.80;99.90
14471;DHT22;7321;50.802;4.336;2023-11-19T12:33:13;13.70;99.90
14471;DHT22;7321;50.802;4.336;2023-11-19T12:35:45;13.70;99.90
14471;DHT22;7321;50.802;4.336;2023-11-19T12:40:46;13.70;99.90
14471;DHT22;7321;50.802;4.336;2023-11-19T12:43:21;13.70;99.90
14471;DHT22;7321;50.802;4.336;2023-11-19T12:45:53;13.80;99.90
14471;DHT22;7321;50.802;4.336;2023-11-19T12:48:22;13.80;99.90
14471;DHT22;7321;50.802;4.336;2023-11-19T12:50:58;13.80;99.90
14471;DHT22;7321;50.802;4.336;2023-11-19T12:53:26;13.90;99.90
14471;DHT22;7321;50.802;4.336;2023-11-19T12:55:53;13.90;99.90
14471;DHT22;7321;50.802;4.336;2023-11-19T12:58:36;14.10;99.90
14471;DHT22;7321;50.802;4.336;2023-11-19T13:01:09;14.20;99.90
14471;DHT22;7321;50.802;4.336;2023-11-19T13:03:38;14.20;99.90
14471;DHT22;7321;50.802;4.336;2023-11-19T13:06:05;14.30;99.90
14471;DHT22;7321;50.802;4.336;2023-11-19T13:08:40;14.10;99.90
14471;DHT22;7321;50.802;4.336;2023-11-19T13:11:29;14.10;99.90
14471;DHT22;7321;50.802;4.336;2023-11-19T13:14:02;14.00;99.90
14471;DHT22;7321;50.802;4.336;2023-11-19T13:16:38;13.90;99.90
14471;DHT22;7321;50.802;4.336;2023-11-19T13:19:09;13.80;99.90
14471;DHT22;7321;50.802;4.336;2023-11-19T13:21:43;13.90;99.90
14471;DHT22;7321;50.802;4.336;2023-11-19T13:24:29;13.80;99.90
14471;DHT22;7321;50.802;4.336;2023-11-19T13:26:58;13.60;99.90
14471;DHT22;7321;50.802;4.336;2023-11-19T13:29:24;13.70;99.90
14471;DHT22;7321;50.802;4.336;2023-11-19T13:31:50;13.70;99.90
14471;DHT22;7321;50.802;4.336;2023-11-19T13:34:15;13.70;99.90
14471;DHT22;7321;50.802;4.336;2023-11-19T13:36:47;13.70;99.90
14471;DHT22;7321;50.802;4.336;2023-11-19T13:41:49;13.80;99.90
14471;DHT22;7321;50.802;4.336;2023-11-19T13:44:16;13.90;99.90
14471;DHT22;7321;50.802;4.336;2023-11-19T13:47:01;13.90;99.90
14471;DHT22;7321;50.802;4.336;2023-11-19T13:49:50;13.80;99.90
14471;DHT22;7321;50.802;4.336;2023-11-19T13:52:25;13.80;99.90
14471;DHT22;7321;50.802;4.336;2023-11-19T13:54:53;13.80;99.90
14471;DHT22;7321;50.802;4.336;2023-11-19T13:57:43;13.80;99.90
14471;DHT22;7321;50.802;4.336;2023-11-19T14:01:01;13.70;99.90
14471;DHT22;7321;50.802;4.336;2023-11-19T14:03:30;13.60;99.90
14471;DHT22;7321;50.802;4.336;2023-11-19T14:06:21;13.70;99.90
14471;DHT22;7321;50.802;4.336;2023-11-19T14:09:06;13.70;99.90
14471;DHT22;7321;50.802;4.336;2023-11-19T14:11:46;13.80;99.90
14471;DHT22;7321;50.802;4.336;2023-11-19T14:14:12;13.80;99.90
14471;DHT22;7321;50.802;4.336;2023-11-19T14:16:38;13.80;99.90
14471;DHT22;7321;50.802;4.336;2023-11-19T14:19:04;13.90;99.90
14471;DHT22;7321;50.802;4.336;2023-11-19T14:21:31;13.90;99.90
14471;DHT22;7321;50.802;4.336;2023-11-19T14:23:57;13.80;99.90
14471;DHT22;7321;50.802;4.336;2023-11-19T14:26:23;13.80;99.90
14471;DHT22;7321;50.802;4.336;2023-11-19T14:28:52;13.70;99.90
14471;DHT22;7321;50.802;4.336;2023-11-19T14:31:18;13.70;99.90
14471;DHT22;7321;50.802;4.336;2023-11-19T14:33:43;13.60;99.90
14471;DHT22;7321;50.802;4.336;2023-11-19T14:36:12;13.60;99.90
14471;DHT22;7321;50.802;4.336;2023-11-19T14:38:38;13.50;99.90
14471;DHT22;7321;50.802;4.336;2023-11-19T14:41:36;13.60;99.90
14471;DHT22;7321;50.802;4.336;2023-11-19T14:44:25;13.70;99.90
14471;DHT22;7321;50.802;4.336;2023-11-19T14:48:05;13.70;99.90
14471;DHT22;7321;50.802;4.336;2023-11-19T14:51:03;13.70;99.90
14471;DHT22;7321;50.802;4.336;2023-11-19T14:53:37;13.80;99.90
14471;DHT22;7321;50.802;4.336;2023-11-19T14:56:45;13.70;99.90
14471;DHT22;7321;50.802;4.336;2023-11-19T15:06:39;13.50;99.90
14471;DHT22;7321;50.802;4.336;2023-11-19T15:09:50;13.40;99.90
14471;DHT22;7321;50.802;4.336;2023-11-19T15:16:12;13.50;99.90
14471;DHT22;7321;50.802;4.336;2023-11-19T15:22:43;13.60;99.90
14471;DHT22;7321;50.802;4.336;2023-11-19T15:28:53;13.60;99.90
14471;DHT22;7321;50.802;4.336;2023-11-19T15:31:39;13.80;99.90
14471;DHT22;7321;50.802;4.336;2023-11-19T15:34:34;13.70;99.90
14471;DHT22;7321;50.802;4.336;2023-11-19T15:37:03;13.70;99.90
14471;DHT22;7321;50.802;4.336;2023-11-19T15:39:45;13.70;99.90
14471;DHT22;7321;50.802;4.336;2023-11-19T15:42:42;13.60;99.90
14471;DHT22;7321;50.802;4.336;2023-11-19T15:46:11;13.60;99.90
14471;DHT22;7321;50.802;4.336;2023-11-19T15:52:04;13.50;99.90
14471;DHT22;7321;50.802;4.336;2023-11-19T15:54:40;13.50;99.90
14471;DHT22;7321;50.802;4.336;2023-11-19T15:57:06;13.40;99.90
14471;DHT22;7321;50.802;4.336;2023-11-19T15:59:35;13.30;99.90
14471;DHT22;7321;50.802;4.336;2023-11-19T16:02:04;13.10;99.90
14471;DHT22;7321;50.802;4.336;2023-11-19T16:04:30;12.90;99.90
14471;DHT22;7321;50.802;4.336;2023-11-19T16:07:07;12.90;99.90
14471;DHT22;7321;50.802;4.336;2023-11-19T16:10:05;12.90;99.90
14471;DHT22;7321;50.802;4.336;2023-11-19T16:12:59;12.80;99.90
14471;DHT22;7321;50.802;4.336;2023-11-19T16:15:28;12.80;99.90
14471;DHT22;7321;50.802;4.336;2023-11-19T16:18:41;12.90;99.90
14471;DHT22;7321;50.802;4.336;2023-11-19T16:24:21;12.80;99.90
14471;DHT22;7321;50.802;4.336;2023-11-19T16:26:50;12.80;99.90
14471;DHT22;7321;50.802;4.336;2023-11-19T16:29:30;12.80;99.90
14471;DHT22;7321;50.802;4.336;2023-11-19T16:32:04;12.80;99.90
14471;DHT22;7321;50.802;4.336;2023-11-19T16:34:30;12.60;99.90
14471;DHT22;7321;50.802;4.336;2023-11-19T16:36:56;12.40;99.90
14471;DHT22;7321;50.802;4.336;2023-11-19T16:39:22;12.30;99.90
14471;DHT22;7321;50.802;4.336;2023-11-19T16:41:48;12.20;99.90
14471;DHT22;7321;50.802;4.336;2023-11-19T16:44:13;12.30;99.90
14471;DHT22;7321;50.802;4.336;2023-11-19T16:46:39;12.20;99.90
14471;DHT22;7321;50.802;4.336;2023-11-19T16:49:05;12.20;99.90
14471;DHT22;7321;50.802;4.336;2023-11-19T16:51:31;12.20;99.90
14471;DHT22;7321;50.802;4.336;2023-11-19T16:53:57;12.20;99.90
14471;DHT22;7321;50.802;4.336;2023-11-19T16:56:23;12.20;99.90
14471;DHT22;7321;50.802;4.336;2023-11-19T16:58:49;12.30;99.90
14471;DHT22;7321;50.802;4.336;2023-11-19T17:01:15;12.40;99.90
14471;DHT22;7321;50.802;4.336;2023-11-19T17:03:41;12.40;99.90